Time;durP1;ratioP1;P1;durP2;ratioP2;P2;SDS_P1;SDS_P2;PMS_P1;PMS_P2;Temp;Humidity;BMP_temperature;BMP_pressure;BME280_temperature;BME280_humidity;BME280_pressure;Samples;Min_cycle;Max_cycle;Signal;HPM_P1;HPM_P2
2022/05/07 00:02:27;;;;;;;21.58;12.38;;;;;;;9.00;80.53;98140.72;10336919;28;20120;-58
2022/05/07 00:07:26;;;;;;;19.88;12.57;;;;;;;8.95;80.22;98138.06;10336689;28;20457;-58
2022/05/07 00:12:25;;;;;;;17.10;11.60;;;;;;;8.90;80.19;98150.06;10336753;28;20400;-58
2022/05/07 00:22:41;;;;;;;14.77;10.65;;;;;;;8.73;80.32;98142.09;10335594;28;20069;-58
2022/05/07 00:27:40;;;;;;;14.65;9.90;;;;;;;8.66;80.69;98148.91;10335389;28;20112;-58
2022/05/07 00:32:39;;;;;;;14.35;9.73;;;;;;;8.58;81.17;98145.38;10335419;28;20092;-58
2022/05/07 00:37:38;;;;;;;13.38;9.98;;;;;;;8.52;82.05;98147.84;10334648;28;20036;-58
2022/05/07 00:42:38;;;;;;;17.23;10.27;;;;;;;8.30;82.67;98132.06;10335160;28;20087;-58
2022/05/07 00:47:39;;;;;;;20.58;10.43;;;;;;;8.27;84.45;98151.81;10335292;28;20071;-58
2022/05/07 00:52:37;;;;;;;20.80;12.13;;;;;;;8.24;84.30;98146.59;10334964;28;20072;-58
2022/05/07 00:57:36;;;;;;;22.08;12.68;;;;;;;8.19;84.71;98148.25;10333699;28;20511;-58
2022/05/07 01:02:37;;;;;;;16.13;10.88;;;;;;;8.09;84.87;98142.94;10333812;28;20068;-58
2022/05/07 01:07:36;;;;;;;14.88;10.20;;;;;;;8.07;84.28;98139.47;10333214;28;20061;-58
2022/05/07 01:12:35;;;;;;;16.20;10.75;;;;;;;8.04;84.37;98143.75;10333120;28;20076;-58
2022/05/07 01:17:35;;;;;;;22.70;12.20;;;;;;;7.97;85.07;98147.94;10333491;28;20065;-58
2022/05/07 01:22:34;;;;;;;;;;;;;;;7.74;86.58;98144.97;10333987;28;20076;-58
2022/05/07 01:27:33;;;;;;;15.98;9.40;;;;;;;7.53;87.03;98145.50;10332863;28;19908;-58
2022/05/07 01:32:32;;;;;;;15.95;9.93;;;;;;;7.31;87.25;98151.06;10332644;28;20077;-57
2022/05/07 01:37:31;;;;;;;16.08;9.85;;;;;;;7.17;87.54;98163.72;10332679;28;20025;-58
2022/05/07 01:42:30;;;;;;;18.05;11.27;;;;;;;7.06;88.06;98144.59;10332553;28;20069;-58
2022/05/07 01:52:46;;;;;;;19.38;12.98;;;;;;;7.07;87.32;98152.34;10333307;28;20068;-58
2022/05/07 01:57:45;;;;;;;18.55;11.82;;;;;;;7.00;88.22;98145.34;10332000;28;20041;-60
2022/05/07 02:02:44;;;;;;;;;;;;;;;6.97;88.36;98142.72;10332781;28;20068;-58
2022/05/07 02:07:44;;;;;;;16.65;10.05;;;;;;;6.97;88.41;98150.44;10332209;28;19909;-58
2022/05/07 02:12:43;;;;;;;15.15;9.95;;;;;;;6.92;88.15;98149.50;10332510;28;20488;-58
2022/05/07 02:17:43;;;;;;;41.53;21.85;;;;;;;6.90;88.46;98158.91;10331618;28;20061;-58
2022/05/07 02:22:44;;;;;;;35.28;18.88;;;;;;;6.85;88.67;98137.31;10332047;28;20067;-58
2022/05/07 02:27:43;;;;;;;35.28;20.70;;;;;;;6.91;88.04;98146.00;10331015;28;20064;-57
2022/05/07 02:32:42;;;;;;;94.38;47.42;;;;;;;6.92;88.50;98150.34;10334759;28;20057;-58
2022/05/07 02:37:41;;;;;;;52.95;28.70;;;;;;;6.96;87.76;98154.75;10339569;28;20040;-58
2022/05/07 02:42:40;;;;;;;82.07;44.63;;;;;;;6.92;88.50;98150.34;10339273;28;20033;-58
2022/05/07 02:47:40;;;;;;;48.22;25.90;;;;;;;6.94;87.98;98140.06;10339125;28;20103;-58
2022/05/07 02:52:40;;;;;;;28.60;15.27;;;;;;;6.90;88.16;98146.88;10339283;28;20101;-58
2022/05/07 02:57:38;;;;;;;18.67;11.70;;;;;;;6.81;89.23;98157.88;10338493;28;20061;-58
2022/05/07 03:02:38;;;;;;;20.40;11.85;;;;;;;6.78;89.22;98155.22;10339013;28;20033;-60
2022/05/07 03:07:37;;;;;;;17.33;11.60;;;;;;;6.71;89.44;98157.66;10338770;28;20501;-58
2022/05/07 03:12:36;;;;;;;18.95;12.48;;;;;;;6.64;88.87;98158.38;10337627;28;20048;-58
2022/05/07 03:17:36;;;;;;;20.60;12.82;;;;;;;6.61;89.27;98154.88;10337765;28;20076;-58
2022/05/07 03:22:35;;;;;;;27.90;13.20;;;;;;;6.55;89.09;98151.31;10338164;28;20083;-58
2022/05/07 03:27:34;;;;;;;18.60;12.70;;;;;;;6.57;88.78;98154.78;10338668;28;20065;-58
2022/05/07 03:32:36;;;;;;;24.80;14.63;;;;;;;6.59;88.71;98145.38;10337204;28;20061;-58
2022/05/07 03:37:34;;;;;;;24.88;13.68;;;;;;;6.63;89.02;98157.47;10337760;28;20065;-58
2022/05/07 03:42:33;;;;;;;22.50;12.80;;;;;;;6.65;89.46;98152.38;10336327;28;20419;-58
2022/05/07 03:47:32;;;;;;;26.10;15.38;;;;;;;6.68;89.10;98160.16;10336940;28;20065;-58
2022/05/07 03:57:49;;;;;;;29.63;17.70;;;;;;;6.73;89.37;98162.00;10336629;28;20069;-57
2022/05/07 04:02:48;;;;;;;19.27;12.73;;;;;;;6.69;89.73;98170.50;10336387;28;20029;-58
2022/05/07 04:07:47;;;;;;;19.25;11.95;;;;;;;6.55;89.52;98159.03;10335442;28;20030;-58
2022/05/07 04:12:51;;;;;;;19.10;11.82;;;;;;;6.66;88.97;98173.03;10276649;28;20060;-58
2022/05/07 04:17:50;;;;;;;21.92;14.02;;;;;;;6.68;89.11;98173.94;10254917;28;20050;-58
2022/05/07 04:22:49;;;;;;;19.67;12.95;;;;;;;6.72;88.70;98180.88;10254607;28;20066;-57
2022/05/07 04:27:48;;;;;;;20.10;13.18;;;;;;;6.83;88.35;98176.81;10254923;28;20113;-58
2022/05/07 04:32:47;;;;;;;25.17;14.82;;;;;;;6.76;88.54;98163.78;10254254;28;20054;-58
2022/05/07 04:37:46;;;;;;;27.33;18.73;;;;;;;7.00;88.54;98190.06;10253878;28;20490;-58
2022/05/07 04:42:45;;;;;;;23.27;14.73;;;;;;;7.01;89.04;98191.81;10254477;28;20030;-58
2022/05/07 04:47:44;;;;;;;23.40;15.07;;;;;;;7.11;88.71;98192.00;10253823;28;20066;-58
2022/05/07 04:52:43;;;;;;;22.20;15.15;;;;;;;7.19;88.75;98199.06;10254563;28;20057;-58
2022/05/07 04:57:42;;;;;;;18.73;12.95;;;;;;;7.36;88.91;98201.09;10280956;28;20041;-58
2022/05/07 05:02:41;;;;;;;20.25;12.60;;;;;;;7.49;87.85;98194.47;10293770;28;20493;-58
2022/05/07 05:07:40;;;;;;;18.42;11.82;;;;;;;7.60;88.56;98193.81;10293361;28;20512;-58
2022/05/07 05:12:38;;;;;;;18.50;11.90;;;;;;;7.78;87.48;98205.31;10253462;28;20030;-58
2022/05/07 05:17:37;;;;;;;16.42;10.75;;;;;;;7.83;87.56;98203.69;10252391;28;20553;-58
2022/05/07 05:22:36;;;;;;;17.30;11.70;;;;;;;8.11;87.79;98201.53;10252639;28;20467;-58
2022/05/07 05:27:35;;;;;;;18.20;11.88;;;;;;;8.49;86.44;98199.56;10252705;28;20129;-58
2022/05/07 05:32:34;;;;;;;15.57;10.82;;;;;;;8.76;85.45;98209.41;10252650;28;20042;-58
2022/05/07 05:37:33;;;;;;;14.07;9.02;;;;;;;9.04;83.97;98209.75;10251489;28;20437;-58
2022/05/07 05:42:32;;;;;;;16.33;10.80;;;;;;;9.13;83.08;98202.97;10251970;28;20106;-58
2022/05/07 05:47:31;;;;;;;14.35;11.50;;;;;;;9.51;83.08;98204.28;10251496;28;20068;-58
2022/05/07 05:52:31;;;;;;;18.08;10.68;;;;;;;9.86;81.19;98201.16;10251478;28;20114;-58
2022/05/07 05:57:30;;;;;;;16.75;11.07;;;;;;;10.20;80.12;98205.78;10251986;28;20066;-59
2022/05/07 06:02:29;;;;;;;17.63;10.27;;;;;;;10.50;78.66;98209.47;10250885;28;20105;-59
2022/05/07 06:07:28;;;;;;;13.07;9.48;;;;;;;10.75;76.69;98207.91;10250891;28;20034;-58
2022/05/07 06:12:27;;;;;;;14.15;9.20;;;;;;;10.92;74.28;98208.00;10250736;28;20501;-59
2022/05/07 06:17:26;;;;;;;12.80;9.57;;;;;;;11.14;73.11;98192.50;10250213;28;20070;-59
2022/05/07 06:22:25;;;;;;;15.02;10.52;;;;;;;11.40;72.45;98190.00;10251240;28;20466;-59
2022/05/07 06:27:31;;;;;;;14.60;8.93;;;;;;;11.46;72.67;98184.81;10250827;28;20474;-59
2022/05/07 06:32:35;;;;;;;11.50;9.05;;;;;;;11.72;71.73;98192.66;10250174;28;20081;-58
2022/05/07 06:37:36;;;;;;;12.45;7.07;;;;;;;11.90;71.73;98181.44;10249216;28;20061;-59
2022/05/07 06:42:35;;;;;;;10.50;7.00;;;;;;;12.03;69.58;98185.75;10250868;28;20065;-59
2022/05/07 06:47:34;;;;;;;9.98;6.18;;;;;;;12.30;67.99;98177.09;10250294;28;20081;-59
2022/05/07 06:52:42;;;;;;;9.68;5.22;;;;;;;12.53;64.72;98173.56;10249861;28;20065;-59
2022/05/07 06:57:42;;;;;;;7.65;5.25;;;;;;;12.56;63.09;98168.38;10250826;28;20082;-59
2022/05/07 07:02:41;;;;;;;10.23;5.65;;;;;;;12.85;63.68;98180.44;10250151;28;20065;-59
2022/05/07 07:07:40;;;;;;;8.15;5.18;;;;;;;13.02;62.50;98178.63;10250603;28;20093;-59
2022/05/07 07:12:40;;;;;;;7.38;4.95;;;;;;;13.11;59.41;98170.78;10249648;28;20041;-59
2022/05/07 07:17:39;;;;;;;8.02;5.68;;;;;;;13.37;62.34;98167.19;10251981;28;20105;-59
2022/05/07 07:22:37;;;;;;;7.82;5.28;;;;;;;13.77;61.00;98159.13;10256624;28;20134;-59
2022/05/07 07:27:36;;;;;;;10.93;5.38;;;;;;;14.10;59.33;98159.75;10257061;28;20048;-59
2022/05/07 07:32:35;;;;;;;8.43;5.10;;;;;;;14.33;58.45;98138.66;10256913;28;20129;-59
2022/05/07 07:37:34;;;;;;;7.43;5.18;;;;;;;14.62;56.37;98147.06;10256629;28;20268;-59
2022/05/07 07:42:33;;;;;;;12.98;6.53;;;;;;;14.83;56.80;98155.56;10255972;28;20042;-59
2022/05/07 07:52:54;;;;;;;8.05;4.95;;;;;;;15.30;54.97;98148.03;10256302;28;20062;-59
2022/05/07 07:57:57;;;;;;;8.45;4.80;;;;;;;15.66;54.98;98139.63;10255826;28;20082;-59
2022/05/07 08:02:59;;;;;;;10.18;5.22;;;;;;;15.97;54.20;98151.38;10255907;28;20070;-59
2022/05/07 08:13:17;;;;;;;8.50;5.80;;;;;;;16.57;52.80;98150.34;10255848;28;20089;-59
2022/05/07 08:18:16;;;;;;;;;;;;;;;16.77;51.61;98142.97;10255393;28;20081;-59
2022/05/07 08:23:15;;;;;;;8.63;4.70;;;;;;;17.06;50.28;98144.16;10254841;28;19916;-59
2022/05/07 08:28:15;;;;;;;6.38;4.38;;;;;;;17.21;47.99;98141.22;10253972;28;20532;-59
2022/05/07 08:33:16;;;;;;;8.45;4.28;;;;;;;17.35;45.41;98146.16;10254951;28;20077;-59
2022/05/07 08:38:15;;;;;;;5.63;3.63;;;;;;;17.27;43.80;98142.84;10254524;28;20073;-59
2022/05/07 08:43:16;;;;;;;4.10;3.65;;;;;;;17.35;44.22;98144.41;10254410;28;20047;-59
2022/05/07 08:48:15;;;;;;;6.22;4.07;;;;;;;17.45;43.12;98146.81;10254515;28;20069;-59
2022/05/07 08:53:14;;;;;;;6.50;4.20;;;;;;;17.69;44.22;98138.41;10253171;28;20074;-59
2022/05/07 08:58:14;;;;;;;5.30;3.80;;;;;;;17.86;42.40;98138.00;10253852;28;20034;-58
2022/05/07 09:03:17;;;;;;;5.43;3.90;;;;;;;18.10;41.37;98139.16;10253656;28;20073;-58
2022/05/07 09:08:16;;;;;;;5.85;3.47;;;;;;;18.29;40.31;98130.81;10252954;28;20078;-58
2022/05/07 09:13:17;;;;;;;4.60;3.40;;;;;;;18.64;39.68;98122.00;10253447;28;20038;-58
2022/05/07 09:18:18;;;;;;;5.97;3.63;;;;;;;18.86;39.18;98122.28;10253492;28;20074;-58
2022/05/07 09:23:23;;;;;;;5.60;3.75;;;;;;;19.33;38.61;98112.13;10253335;28;20070;-59
2022/05/07 09:28:26;;;;;;;5.82;3.63;;;;;;;19.73;37.02;98113.56;10252733;28;20850;-59
2022/05/07 09:33:33;;;;;;;11.07;3.90;;;;;;;19.75;37.45;98124.03;10253043;28;20069;-58
2022/05/07 09:38:32;;;;;;;6.25;4.03;;;;;;;19.89;37.43;98105.16;10252360;28;20069;-58
2022/05/07 09:43:32;;;;;;;5.47;3.85;;;;;;;19.95;37.66;98113.69;10251423;28;20077;-58
2022/05/07 09:48:31;;;;;;;7.90;3.78;;;;;;;19.81;37.16;98111.53;10251640;28;20506;-59
2022/05/07 09:58:51;;;;;;;7.40;3.78;;;;;;;20.04;37.67;98109.91;10252301;28;20069;-58
2022/05/07 10:04:15;;;;;;;5.93;3.80;;;;;;;20.04;36.86;98109.91;10251098;28;20171;-59
2022/05/07 10:09:25;;;;;;;5.30;3.30;;;;;;;20.13;36.20;98098.19;10250862;28;20082;-58
2022/05/07 10:14:26;;;;;;;4.03;3.33;;;;;;;20.19;35.81;98096.22;10250795;28;20061;-58
2022/05/07 10:19:39;;;;;;;6.85;5.00;;;;;;;20.37;36.57;98096.47;10251078;28;20513;-58
2022/05/07 10:24:38;;;;;;;6.00;4.13;;;;;;;20.71;36.49;98090.91;10250869;28;20076;-58
2022/05/07 10:29:38;;;;;;;12.80;8.02;;;;;;;20.44;36.38;98082.19;10253206;28;20048;-58
2022/05/07 10:34:38;;;;;;;16.25;9.90;;;;;;;20.45;37.36;98068.97;10261490;28;20502;-59
2022/05/07 10:39:36;;;;;;;4.65;3.70;;;;;;;20.75;35.90;98073.19;10252679;28;20089;-58
2022/05/07 10:44:35;;;;;;;8.52;3.67;;;;;;;20.39;35.70;98077.06;10263914;28;20022;-58
2022/05/07 10:49:36;;;;;;;3.55;3.10;;;;;;;20.16;35.83;98077.00;10257182;28;20033;-58
2022/05/07 10:54:35;;;;;;;4.05;3.15;;;;;;;20.32;34.72;98066.78;10272466;28;20134;-58
2022/05/07 10:59:34;;;;;;;5.72;3.80;;;;;;;20.12;35.96;98063.09;10299507;28;20566;-59
2022/05/07 11:04:42;;;;;;;6.60;3.60;;;;;;;20.28;35.87;98060.75;10297787;28;20084;-59
2022/05/07 11:09:48;;;;;;;4.97;3.55;;;;;;;20.10;36.62;98064.06;10281968;28;20057;-58
2022/05/07 11:14:47;;;;;;;5.22;3.30;;;;;;;20.22;37.05;98055.72;10276249;28;20076;-58
2022/05/07 11:19:46;;;;;;;6.68;3.67;;;;;;;19.99;37.33;98038.06;10297908;28;20073;-60
2022/05/07 11:24:44;;;;;;;8.23;3.72;;;;;;;19.96;37.18;98056.63;10297649;28;20370;-59
2022/05/07 11:29:45;;;;;;;6.18;3.60;;;;;;;20.05;37.42;98056.31;10297583;28;20049;-58
2022/05/07 11:34:44;;;;;;;5.47;3.17;;;;;;;19.81;37.75;98052.72;10296206;28;20072;-59
2022/05/07 11:40:01;;;;;;;4.25;3.40;;;;;;;20.11;36.01;98040.28;10296754;28;20061;-59
2022/05/07 11:50:22;;;;;;;5.30;3.28;;;;;;;20.87;37.11;98041.09;10296930;28;20451;-59
2022/05/07 11:55:29;;;;;;;7.00;3.33;;;;;;;20.97;35.91;98004.66;10296191;28;20417;-59
2022/05/07 12:00:30;;;;;;;6.85;3.28;;;;;;;21.08;34.34;98021.78;10296237;28;20505;-59
2022/05/07 12:05:50;;;;;;;6.80;3.58;;;;;;;21.03;35.98;98013.19;10295730;28;20069;-58
2022/05/07 12:10:51;;;;;;;6.20;3.65;;;;;;;20.80;35.72;98002.69;10270938;28;20478;-59
2022/05/07 12:21:09;;;;;;;6.68;3.60;;;;;;;20.70;35.84;97996.88;10256391;28;20066;-59
2022/05/07 12:31:25;;;;;;;4.30;2.90;;;;;;;20.86;34.79;97994.50;10254960;28;20086;-59
2022/05/07 12:36:26;;;;;;;4.95;3.33;;;;;;;20.77;35.54;97989.59;10254929;28;20026;-59
2022/05/07 12:41:26;;;;;;;4.03;3.22;;;;;;;20.95;34.69;97993.28;10254624;28;20089;-59
2022/05/07 12:46:26;;;;;;;4.75;3.20;;;;;;;21.01;33.43;97996.56;10254464;28;20074;-59
2022/05/07 12:51:26;;;;;;;8.00;3.45;;;;;;;20.62;33.42;97989.25;10254453;28;20057;-58
2022/05/07 12:56:24;;;;;;;5.47;3.45;;;;;;;20.65;33.96;97981.22;10253613;28;20070;-59
2022/05/07 13:01:24;;;;;;;6.22;3.38;;;;;;;20.95;32.60;97985.38;10253297;28;20110;-59
2022/05/07 13:06:22;;;;;;;5.45;3.13;;;;;;;21.07;32.84;97977.81;10254408;28;20074;-59
2022/05/07 13:11:22;;;;;;;5.70;3.63;;;;;;;21.16;31.97;97960.78;10252638;28;20054;-59
2022/05/07 13:16:22;;;;;;;6.40;3.88;;;;;;;21.38;31.91;97968.69;10252715;28;20069;-59
2022/05/07 13:21:22;;;;;;;5.90;3.38;;;;;;;21.29;31.64;97961.19;10252830;28;20069;-59
2022/05/07 13:26:21;;;;;;;7.43;3.80;;;;;;;21.44;32.04;97922.72;10253335;28;20074;-59
2022/05/07 13:31:20;;;;;;;5.22;3.38;;;;;;;21.79;30.81;97965.25;10252489;28;20050;-59
2022/05/07 13:36:19;;;;;;;6.28;3.80;;;;;;;21.89;30.50;97956.84;10253166;28;20089;-59
2022/05/07 13:41:20;;;;;;;7.43;3.80;;;;;;;21.95;31.17;97956.59;10251786;28;20097;-59
2022/05/07 13:46:19;;;;;;;6.50;4.07;;;;;;;21.84;30.52;97952.69;10252451;28;20073;-59
2022/05/07 13:51:20;;;;;;;6.90;3.40;;;;;;;21.61;30.37;97959.81;10252025;28;20030;-59
2022/05/07 13:56:19;;;;;;;6.60;3.40;;;;;;;21.49;30.40;97950.63;10252460;28;20472;-59
2022/05/07 14:01:18;;;;;;;7.00;4.20;;;;;;;21.20;30.81;97941.25;10250922;28;20058;-59
2022/05/07 14:06:19;;;;;;;5.90;3.50;;;;;;;20.88;31.69;97932.00;10251544;28;20514;-59
2022/05/07 14:11:18;;;;;;;5.47;3.30;;;;;;;20.82;31.58;97943.66;10249897;28;20491;-59
2022/05/07 14:16:17;;;;;;;5.82;3.20;;;;;;;20.83;31.49;97944.53;10251186;28;20081;-59
2022/05/07 14:21:16;;;;;;;5.93;3.45;;;;;;;21.03;31.82;97941.97;10251569;28;20066;-59
2022/05/07 14:26:15;;;;;;;6.38;3.67;;;;;;;21.10;31.88;97927.59;10252335;28;20068;-59
2022/05/07 14:31:15;;;;;;;7.25;3.50;;;;;;;21.08;32.92;97928.56;10264020;28;20077;-59
2022/05/07 14:36:14;;;;;;;6.90;3.40;;;;;;;21.21;31.57;97931.59;10264291;28;20497;-59
2022/05/07 14:41:13;;;;;;;4.90;3.20;;;;;;;21.28;31.53;97938.34;10278948;28;20532;-59
2022/05/07 14:46:12;;;;;;;6.55;3.08;;;;;;;21.22;30.81;97920.97;10263921;28;20061;-59
2022/05/07 14:51:10;;;;;;;7.90;3.20;;;;;;;20.82;31.48;97906.75;10264025;28;20029;-59
2022/05/07 14:56:09;;;;;;;6.60;3.40;;;;;;;20.87;31.68;97925.03;10262865;28;20045;-59
2022/05/07 15:01:08;;;;;;;8.32;3.60;;;;;;;20.65;31.96;97925.84;10263846;28;20030;-58
2022/05/07 15:06:10;;;;;;;5.97;3.30;;;;;;;20.46;32.09;97922.22;10263679;28;20090;-58
2022/05/07 15:11:11;;;;;;;6.38;3.22;;;;;;;20.40;32.55;97925.94;10262259;28;20069;-59
2022/05/07 15:16:10;;;;;;;4.72;3.17;;;;;;;20.42;32.56;97928.50;10263980;28;20088;-59
2022/05/07 15:21:10;;;;;;;8.05;3.67;;;;;;;20.05;32.69;97928.09;10263608;28;20089;-59
2022/05/07 15:26:09;;;;;;;7.20;3.92;;;;;;;20.11;33.91;97926.13;10263684;28;20074;-58
2022/05/07 15:31:09;;;;;;;8.40;3.60;;;;;;;20.01;33.40;97921.19;10261786;28;20127;-58
2022/05/07 15:41:26;;;;;;;6.85;3.45;;;;;;;19.80;34.42;97914.94;10280012;28;20058;-58
2022/05/07 15:46:26;;;;;;;8.60;3.50;;;;;;;19.80;34.43;97928.09;10296523;28;20105;-58
2022/05/07 15:51:27;;;;;;;7.85;4.10;;;;;;;19.47;34.35;97929.25;10262657;28;20065;-58
2022/05/07 15:56:26;;;;;;;8.35;4.07;;;;;;;19.22;34.68;97930.91;10257329;28;20070;-58
2022/05/07 16:01:25;;;;;;;7.90;4.03;;;;;;;19.01;35.00;97929.84;10255940;28;20026;-58
2022/05/07 16:06:23;;;;;;;13.88;5.28;;;;;;;18.73;35.67;97931.63;10255510;28;20022;-58
2022/05/07 16:11:22;;;;;;;7.82;4.88;;;;;;;18.61;35.48;97938.94;10256177;28;20038;-58
2022/05/07 16:16:21;;;;;;;5.75;4.10;;;;;;;18.54;35.84;97926.03;10254993;28;20126;-58
2022/05/07 16:21:21;;;;;;;7.60;4.05;;;;;;;18.48;35.95;97936.72;10254879;28;20544;-58
2022/05/07 16:26:20;;;;;;;9.13;5.38;;;;;;;18.23;36.04;97947.97;10255141;28;20073;-58
2022/05/07 16:31:18;;;;;;;9.65;4.75;;;;;;;18.16;35.89;97949.06;10250031;28;20132;-58
2022/05/07 16:36:17;;;;;;;11.27;6.03;;;;;;;18.17;36.45;97949.03;10254376;28;20030;-58
2022/05/07 16:41:16;;;;;;;11.95;7.07;;;;;;;18.18;36.49;97955.97;10254584;28;20029;-58
2022/05/07 16:46:16;;;;;;;12.52;4.95;;;;;;;18.15;37.60;97950.81;10253730;28;20288;-58
2022/05/07 16:51:16;;;;;;;7.70;4.80;;;;;;;17.98;37.65;97945.16;10253266;28;20072;-58
2022/05/07 16:56:15;;;;;;;14.35;5.18;;;;;;;17.92;38.07;97958.50;10253921;28;20242;-58
2022/05/07 17:01:14;;;;;;;10.07;4.07;;;;;;;17.86;38.56;97972.63;10253276;28;20057;-58
2022/05/07 17:06:12;;;;;;;;;;;;;;;17.73;38.88;97979.94;10253699;28;20034;-58
2022/05/07 17:11:11;;;;;;;9.10;4.27;;;;;;;17.64;39.12;97982.81;10253170;28;19913;-58
2022/05/07 17:16:10;;;;;;;7.80;4.68;;;;;;;17.49;39.21;97985.81;10251701;28;20038;-58
2022/05/07 17:21:09;;;;;;;;;;;;;;;17.33;39.30;97994.06;10252584;28;20109;-58
2022/05/07 17:26:08;;;;;;;10.93;6.35;;;;;;;17.09;41.38;97997.25;10250817;28;20024;-58
2022/05/07 17:31:07;;;;;;;;;;;;;;;16.88;42.24;98003.84;10250008;28;20149;-58
2022/05/07 17:36:07;;;;;;;15.05;6.32;;;;;;;16.67;42.86;98016.50;10251637;28;20424;-58
2022/05/07 17:41:06;;;;;;;12.52;5.97;;;;;;;16.41;44.03;98014.41;10252404;28;20072;-58
2022/05/07 17:46:05;;;;;;;;;;;;;;;16.15;44.68;98024.56;10252167;28;20022;-58
2022/05/07 17:51:04;;;;;;;11.35;6.20;;;;;;;15.87;45.67;98027.69;10252074;28;20400;-58
2022/05/07 17:56:03;;;;;;;;;;;;;;;15.60;46.05;98024.63;10252723;28;20085;-58
2022/05/07 18:01:04;;;;;;;14.30;8.35;;;;;;;15.33;47.00;98035.53;10250643;28;19961;-58
2022/05/07 18:06:03;;;;;;;12.30;9.88;;;;;;;15.07;47.69;98033.31;10251303;28;20089;-58
2022/05/07 18:11:02;;;;;;;12.40;11.10;;;;;;;14.94;48.19;98027.38;10250715;28;20454;-58
2022/05/07 18:16:01;;;;;;;14.32;12.27;;;;;;;14.75;48.70;98022.41;10251422;28;20576;-58
2022/05/07 18:21:00;;;;;;;17.05;12.68;;;;;;;14.66;49.43;98022.50;10251019;28;20030;-58
2022/05/07 18:25:59;;;;;;;15.02;11.40;;;;;;;14.55;49.70;98027.00;10265129;28;20500;-58
2022/05/07 18:30:58;;;;;;;13.55;9.55;;;;;;;14.19;50.09;97985.69;10251028;28;20085;-57
2022/05/07 18:42:47;;;;;;;13.38;8.70;;;;;;;14.34;50.10;98035.97;10251084;28;20044;-57
2022/05/07 18:46:38;;;;;;;11.68;6.97;;;;;;;14.21;49.42;98040.44;10250930;28;20061;-57
2022/05/07 18:51:37;;;;;;;8.45;6.05;;;;;;;14.13;49.54;98052.72;10249303;28;20445;-57
2022/05/07 19:01:56;;;;;;;18.52;13.23;;;;;;;13.74;53.99;98060.06;10250564;28;20066;-57
2022/05/07 19:06:55;;;;;;;18.55;11.65;;;;;;;13.41;55.84;98067.22;10250912;28;20092;-60
2022/05/07 19:11:56;;;;;;;14.80;10.38;;;;;;;13.07;57.19;98061.38;10248811;28;20052;-60
2022/05/07 19:16:56;;;;;;;16.52;11.82;;;;;;;12.83;57.26;98067.59;10255916;28;20080;-60
2022/05/07 19:21:56;;;;;;;20.45;13.32;;;;;;;12.74;57.48;98078.91;10256532;28;20589;-60
2022/05/07 19:26:56;;;;;;;15.93;10.20;;;;;;;12.67;57.45;98083.31;10256782;28;20088;-57
2022/05/07 19:31:55;;;;;;;20.13;10.98;;;;;;;12.62;58.06;98079.81;10257444;28;20124;-57
2022/05/07 19:36:54;;;;;;;14.52;10.15;;;;;;;12.62;56.89;98082.44;10257052;28;20066;-60
2022/05/07 19:41:53;;;;;;;15.70;8.02;;;;;;;12.58;56.00;98077.25;10305617;28;20037;-60
2022/05/07 19:46:52;;;;;;;10.32;6.95;;;;;;;12.61;54.88;98092.88;10338710;28;20033;-57
2022/05/07 19:51:51;;;;;;;11.18;6.00;;;;;;;12.60;54.47;98097.22;10337068;28;20390;-60
2022/05/07 19:56:50;;;;;;;8.63;5.75;;;;;;;12.58;53.74;98085.94;10335873;28;20043;-60
2022/05/07 20:01:51;;;;;;;7.97;4.97;;;;;;;12.52;53.03;98085.94;10337247;28;20120;-60
2022/05/07 20:06:50;;;;;;;7.68;4.80;;;;;;;12.48;52.64;98081.63;10336701;28;20072;-60
2022/05/07 20:11:50;;;;;;;8.20;5.20;;;;;;;12.49;51.88;98081.63;10336284;28;20388;-60
2022/05/07 20:16:49;;;;;;;7.40;4.18;;;;;;;12.54;51.79;98066.00;10334779;28;20068;-60
2022/05/07 20:21:56;;;;;;;7.55;4.70;;;;;;;12.58;51.47;98082.44;10336555;28;20030;-60
2022/05/07 20:27:03;;;;;;;6.43;3.60;;;;;;;12.66;50.54;98065.06;10335756;28;20068;-60
2022/05/07 20:32:03;;;;;;;9.35;4.22;;;;;;;12.69;50.88;98065.91;10335579;28;20542;-60
2022/05/07 20:37:03;;;;;;;7.18;3.83;;;;;;;12.70;50.34;98072.00;10335598;28;20065;-60
2022/05/07 20:42:02;;;;;;;10.18;4.28;;;;;;;12.77;50.23;98072.84;10335199;28;20492;-60
2022/05/07 20:47:03;;;;;;;5.10;3.35;;;;;;;12.80;50.26;98078.03;10334892;28;20068;-60
2022/05/07 20:52:02;;;;;;;8.40;3.95;;;;;;;12.80;50.28;98070.22;10334282;28;20068;-60
2022/05/07 20:57:04;;;;;;;11.05;5.05;;;;;;;12.39;50.15;98009.66;10335104;28;20077;-60
2022/05/07 21:02:05;;;;;;;10.63;4.32;;;;;;;12.74;49.72;98073.69;10334488;28;20230;-60
2022/05/07 21:07:05;;;;;;;5.80;3.47;;;;;;;12.78;49.99;98082.38;10335184;28;20069;-60
2022/05/07 21:12:04;;;;;;;7.35;4.22;;;;;;;12.78;49.77;98092.78;10333804;28;20564;-60
2022/05/07 21:17:03;;;;;;;;;;;;;;;12.78;49.91;98093.66;10334356;28;20065;-57
2022/05/07 21:22:04;;;;;;;5.72;3.58;;;;;;;12.73;49.81;98095.41;10334226;28;20011;-60
2022/05/07 21:27:03;;;;;;;8.65;4.03;;;;;;;12.57;49.95;98081.59;10334181;28;20092;-57
2022/05/07 21:32:02;;;;;;;7.82;3.58;;;;;;;12.56;50.09;98085.06;10332778;28;20150;-59
2022/05/07 21:37:01;;;;;;;8.43;3.70;;;;;;;12.51;50.43;98084.22;10332746;28;20087;-59
2022/05/07 21:42:00;;;;;;;5.32;3.03;;;;;;;12.48;49.67;98087.69;10333140;28;20378;-59
2022/05/07 21:46:59;;;;;;;8.48;3.75;;;;;;;12.40;50.04;98097.28;10332809;28;20069;-59
2022/05/07 21:52:01;;;;;;;6.63;3.63;;;;;;;12.34;49.89;98112.03;10333892;28;20046;-60
2022/05/07 21:56:59;;;;;;;6.45;3.38;;;;;;;12.27;49.73;98104.25;10332773;28;20511;-59
2022/05/07 22:01:58;;;;;;;8.73;3.22;;;;;;;12.20;49.39;98110.28;10332601;28;20579;-60
2022/05/07 22:06:57;;;;;;;21.38;4.15;;;;;;;11.99;49.47;98074.75;10331936;28;20511;-59
2022/05/07 22:11:56;;;;;;;8.63;3.25;;;;;;;11.98;49.66;98111.19;10330044;28;20065;-59
2022/05/07 22:16:55;;;;;;;5.70;3.03;;;;;;;11.93;50.01;98112.94;10330003;28;20127;-59
2022/05/07 22:21:55;;;;;;;7.38;4.28;;;;;;;11.93;49.95;98108.59;10330777;28;20116;-59
2022/05/07 22:26:54;;;;;;;6.80;3.05;;;;;;;11.81;50.22;98104.28;10330202;28;20067;-59
2022/05/07 22:31:53;;;;;;;7.32;3.25;;;;;;;11.74;50.89;98105.13;10331245;28;20420;-59
2022/05/07 22:36:52;;;;;;;6.32;3.25;;;;;;;11.63;50.85;98099.06;10330229;28;20128;-59
2022/05/07 22:41:51;;;;;;;5.50;3.35;;;;;;;11.63;50.42;98106.88;10331323;28;20065;-59
2022/05/07 22:46:50;;;;;;;6.72;2.97;;;;;;;11.51;50.49;98105.13;10331235;28;20069;-59
2022/05/07 22:51:48;;;;;;;8.88;3.53;;;;;;;11.45;50.21;98108.59;10339808;28;20048;-59
2022/05/07 22:56:47;;;;;;;8.40;3.90;;;;;;;11.40;50.22;98112.03;10338881;28;20072;-59
2022/05/07 23:01:46;;;;;;;6.70;3.53;;;;;;;11.24;51.30;98119.81;10339566;28;20033;-59
2022/05/07 23:06:45;;;;;;;7.15;3.30;;;;;;;11.21;50.55;98121.53;10339250;28;20576;-59
2022/05/07 23:11:44;;;;;;;7.00;3.15;;;;;;;11.10;51.06;98121.50;10338313;28;20048;-59
2022/05/07 23:16:43;;;;;;;5.28;3.33;;;;;;;11.06;51.95;98129.28;10338438;28;20112;-59
2022/05/07 23:21:42;;;;;;;7.03;3.38;;;;;;;10.83;52.33;98106.69;10338851;28;20038;-59
2022/05/07 23:26:41;;;;;;;9.85;4.78;;;;;;;10.92;53.61;98122.31;10338033;28;20040;-59
2022/05/07 23:31:40;;;;;;;7.50;4.07;;;;;;;10.81;54.41;98126.56;10337772;28;20132;-59
2022/05/07 23:36:39;;;;;;;8.02;4.85;;;;;;;10.58;55.40;98098.78;10336854;28;20116;-59
2022/05/07 23:41:39;;;;;;;6.03;4.18;;;;;;;10.58;55.72;98114.34;10338709;28;20606;-59
2022/05/07 23:46:38;;;;;;;6.28;3.78;;;;;;;10.53;55.99;98112.59;10337239;28;20076;-59
2022/05/07 23:51:37;;;;;;;6.25;4.20;;;;;;;10.45;55.88;98116.88;10337736;28;20041;-59
2022/05/07 23:56:36;;;;;;;8.32;4.60;;;;;;;10.09;57.02;98088.13;10337141;28;20038;-59
